Time;durP1;ratioP1;P1;durP2;ratioP2;P2;SDS_P1;SDS_P2;PMS_P1;PMS_P2;Temp;Humidity;BMP_temperature;BMP_pressure;BME280_temperature;BME280_humidity;BME280_pressure;Samples;Min_cycle;Max_cycle;Signal;HPM_P1;HPM_P2
2023/05/25 00:00:14;;;;;;;5.68;2.50;;;12.90;99.90;;;;;;5031131;28;20077;-78
2023/05/25 00:02:41;;;;;;;6.82;2.92;;;12.90;99.90;;;;;;5034505;28;20111;-77
2023/05/25 00:05:09;;;;;;;5.30;2.63;;;12.90;99.90;;;;;;5035827;28;20046;-78
2023/05/25 00:07:36;;;;;;;6.38;3.05;;;12.90;99.90;;;;;;5031491;28;20049;-77
2023/05/25 00:10:05;;;;;;;4.60;2.85;;;12.90;99.90;;;;;;5035920;28;20505;-78
2023/05/25 00:12:32;;;;;;;5.53;2.53;;;13.00;99.90;;;;;;5031946;28;20049;-77
2023/05/25 00:14:59;;;;;;;8.90;3.17;;;13.00;99.90;;;;;;5032727;28;20088;-78
2023/05/25 00:17:28;;;;;;;5.78;2.60;;;13.00;99.90;;;;;;5033721;28;20579;-78
2023/05/25 00:19:56;;;;;;;5.20;2.95;;;13.00;99.90;;;;;;5035282;28;20050;-78
2023/05/25 00:22:27;;;;;;;5.00;3.08;;;13.10;99.90;;;;;;5033821;28;20057;-78
2023/05/25 00:24:54;;;;;;;7.60;3.00;;;13.00;99.90;;;;;;5029463;28;20061;-77
2023/05/25 00:27:21;;;;;;;8.10;3.65;;;13.10;99.90;;;;;;5032654;28;20095;-77
2023/05/25 00:29:48;;;;;;;6.35;3.15;;;13.10;99.90;;;;;;5030538;28;20037;-78
2023/05/25 00:32:15;;;;;;;10.55;4.10;;;13.10;99.90;;;;;;5034647;28;20080;-77
2023/05/25 00:34:42;;;;;;;11.27;4.32;;;13.10;99.90;;;;;;5035031;28;20103;-77
2023/05/25 00:37:08;;;;;;;7.03;3.15;;;13.10;99.90;;;;;;5033407;28;20049;-78
2023/05/25 00:39:35;;;;;;;7.55;3.28;;;13.10;99.90;;;;;;5034783;28;20049;-77
2023/05/25 00:42:02;;;;;;;6.53;3.38;;;13.10;99.90;;;;;;5032934;28;20061;-77
2023/05/25 00:44:30;;;;;;;4.97;2.80;;;13.10;99.90;;;;;;5029730;28;20591;-77
2023/05/25 00:46:58;;;;;;;11.32;3.13;;;13.10;99.90;;;;;;5031978;28;20059;-78
2023/05/25 00:49:34;;;;;;;9.68;3.15;;;13.10;99.90;;;;;;5034948;28;20115;-77
2023/05/25 00:52:01;;;;;;;6.57;2.70;;;13.10;99.90;;;;;;5047235;28;20073;-77
2023/05/25 00:54:28;;;;;;;7.78;3.38;;;13.00;99.90;;;;;;5047730;28;20068;-77
2023/05/25 00:56:59;;;;;;;9.52;3.15;;;13.00;99.90;;;;;;5034689;28;20072;-78
2023/05/25 00:59:34;;;;;;;9.80;3.13;;;13.00;99.90;;;;;;5046421;28;20055;-77
2023/05/25 01:02:06;;;;;;;9.48;3.80;;;13.00;99.90;;;;;;5048987;28;20105;-77
2023/05/25 01:04:36;;;;;;;10.73;3.28;;;13.00;99.90;;;;;;5032452;28;20540;-77
2023/05/25 01:07:05;;;;;;;8.17;3.17;;;13.00;99.90;;;;;;5033716;28;20501;-77
2023/05/25 01:09:33;;;;;;;7.13;3.80;;;13.00;99.90;;;;;;5034843;28;20053;-78
2023/05/25 01:12:01;;;;;;;8.52;3.90;;;13.00;99.90;;;;;;5034231;28;20132;-77
2023/05/25 01:14:30;;;;;;;9.20;3.67;;;13.00;99.90;;;;;;5029508;28;20049;-77
2023/05/25 01:16:57;;;;;;;8.25;3.08;;;13.00;99.90;;;;;;5029597;28;20421;-77
2023/05/25 01:19:24;;;;;;;11.98;3.47;;;12.90;99.90;;;;;;5030101;28;20107;-77
2023/05/25 01:21:57;;;;;;;6.63;2.97;;;12.90;99.90;;;;;;5031408;28;20475;-77
2023/05/25 01:24:33;;;;;;;7.13;3.00;;;12.90;99.90;;;;;;5031492;28;20501;-77
2023/05/25 01:27:11;;;;;;;8.77;3.85;;;12.80;99.90;;;;;;5031017;28;20132;-77
2023/05/25 01:29:40;;;;;;;8.43;2.70;;;12.80;99.90;;;;;;5028741;28;20081;-77
2023/05/25 01:32:08;;;;;;;6.47;3.65;;;12.70;99.90;;;;;;5031180;28;20091;-77
2023/05/25 01:34:36;;;;;;;8.32;3.22;;;12.70;99.90;;;;;;5029453;28;20120;-77
2023/05/25 01:37:04;;;;;;;9.13;3.65;;;12.70;99.90;;;;;;5030891;28;20055;-78
2023/05/25 01:39:31;;;;;;;9.48;3.33;;;12.60;99.90;;;;;;5028499;28;20049;-77
2023/05/25 01:41:57;;;;;;;7.82;3.28;;;12.60;99.90;;;;;;5026871;28;20081;-77
2023/05/25 01:44:25;;;;;;;8.48;3.42;;;12.60;99.90;;;;;;5025792;28;20081;-77
2023/05/25 01:47:01;;;;;;;5.93;3.67;;;12.50;99.90;;;;;;5030714;28;20089;-77
2023/05/25 01:49:36;;;;;;;7.60;3.60;;;12.40;99.90;;;;;;5030631;28;20041;-77
2023/05/25 01:52:31;;;;;;;7.30;3.03;;;12.40;99.90;;;;;;5031193;28;20053;-77
2023/05/25 01:55:06;;;;;;;10.77;3.08;;;12.30;99.90;;;;;;5007738;28;20056;-77
2023/05/25 01:57:36;;;;;;;5.57;2.90;;;12.20;99.90;;;;;;5027973;28;20516;-76
2023/05/25 02:00:04;;;;;;;9.40;3.40;;;12.20;99.90;;;;;;5028315;28;20501;-77
2023/05/25 02:02:32;;;;;;;7.55;3.05;;;12.20;99.90;;;;;;5030987;28;20472;-77
2023/05/25 02:04:59;;;;;;;9.55;3.63;;;12.20;99.90;;;;;;5028250;28;20092;-77
2023/05/25 02:07:26;;;;;;;5.38;3.00;;;12.10;99.90;;;;;;5030657;28;20053;-77
2023/05/25 02:09:53;;;;;;;7.05;3.70;;;11.90;99.90;;;;;;5029998;28;20104;-77
2023/05/25 02:12:19;;;;;;;11.88;3.03;;;11.80;99.90;;;;;;5030306;28;20099;-77
2023/05/25 02:14:47;;;;;;;5.47;2.55;;;11.70;99.90;;;;;;5026574;28;20513;-77
2023/05/25 02:17:16;;;;;;;7.72;3.30;;;11.70;99.90;;;;;;5027621;28;20436;-77
2023/05/25 02:19:44;;;;;;;9.95;3.55;;;11.70;99.90;;;;;;5029407;28;20049;-77
2023/05/25 02:22:11;;;;;;;5.50;2.45;;;11.70;99.90;;;;;;5029240;28;20580;-77
2023/05/25 02:24:38;;;;;;;8.95;3.00;;;11.70;99.90;;;;;;5028802;28;20053;-77
2023/05/25 02:27:05;;;;;;;12.30;2.95;;;11.70;99.90;;;;;;5030569;28;20512;-77
2023/05/25 02:29:32;;;;;;;9.93;2.95;;;11.70;99.90;;;;;;5028091;28;20042;-77
2023/05/25 02:31:58;;;;;;;7.45;2.83;;;11.70;99.90;;;;;;5035296;28;20132;-77
2023/05/25 02:34:25;;;;;;;10.85;3.30;;;11.70;99.90;;;;;;5032718;28;20048;-76
2023/05/25 02:36:52;;;;;;;9.88;3.65;;;11.70;99.90;;;;;;5032177;28;20091;-76
2023/05/25 02:39:19;;;;;;;7.38;2.60;;;11.70;99.90;;;;;;5041177;28;20049;-76
2023/05/25 02:41:45;;;;;;;10.40;2.85;;;11.70;99.90;;;;;;5044809;28;20053;-76
2023/05/25 02:44:12;;;;;;;11.50;2.95;;;11.70;99.90;;;;;;5040359;28;20049;-76
2023/05/25 02:46:39;;;;;;;10.23;3.35;;;11.70;99.90;;;;;;5036535;28;20045;-76
2023/05/25 02:49:06;;;;;;;7.97;2.75;;;11.70;99.90;;;;;;5032663;28;20085;-76
2023/05/25 02:51:32;;;;;;;7.00;3.28;;;11.70;99.90;;;;;;5033590;28;20131;-76
2023/05/25 02:54:00;;;;;;;7.95;3.03;;;11.70;99.90;;;;;;5034593;28;20420;-77
2023/05/25 02:56:27;;;;;;;8.15;3.22;;;11.70;99.90;;;;;;5033158;28;20048;-76
2023/05/25 02:58:53;;;;;;;7.55;2.63;;;11.70;99.90;;;;;;5030588;28;20046;-76
2023/05/25 03:01:20;;;;;;;11.82;3.50;;;11.70;99.90;;;;;;5033228;28;20542;-76
2023/05/25 03:03:51;;;;;;;8.07;2.90;;;11.70;99.90;;;;;;5034107;28;20465;-76
2023/05/25 03:06:20;;;;;;;7.03;2.55;;;11.70;99.90;;;;;;5031498;28;20452;-76
2023/05/25 03:08:47;;;;;;;10.27;2.90;;;11.70;99.90;;;;;;5033951;28;20045;-76
2023/05/25 03:11:14;;;;;;;7.57;3.08;;;11.70;99.90;;;;;;5033317;28;20054;-76
2023/05/25 03:13:41;;;;;;;6.82;2.75;;;11.70;99.90;;;;;;5030296;28;20616;-76
2023/05/25 03:16:07;;;;;;;7.82;2.60;;;11.70;99.90;;;;;;5031844;28;20480;-75
2023/05/25 03:18:34;;;;;;;9.25;3.05;;;11.70;99.90;;;;;;5033871;28;20041;-76
2023/05/25 03:21:01;;;;;;;8.18;2.97;;;11.70;99.90;;;;;;5032004;28;20053;-76
2023/05/25 03:23:28;;;;;;;6.10;2.65;;;11.70;99.90;;;;;;5033701;28;20046;-76
2023/05/25 03:25:55;;;;;;;6.38;2.70;;;11.70;99.90;;;;;;5032906;28;20080;-76
2023/05/25 03:28:22;;;;;;;10.90;4.30;;;11.70;99.90;;;;;;5026870;28;20207;-76
2023/05/25 03:30:48;;;;;;;8.43;3.00;;;11.80;99.90;;;;;;5032012;28;20501;-76
2023/05/25 03:33:15;;;;;;;10.48;3.72;;;11.80;99.90;;;;;;5033745;28;20045;-76
2023/05/25 03:35:42;;;;;;;7.10;3.20;;;11.80;99.90;;;;;;5032863;28;20050;-77
2023/05/25 03:38:09;;;;;;;8.80;2.88;;;11.90;99.90;;;;;;5032992;28;20045;-76
2023/05/25 03:40:36;;;;;;;11.98;3.03;;;11.80;99.90;;;;;;5031477;28;20049;-76
2023/05/25 03:43:02;;;;;;;14.25;3.90;;;11.80;99.90;;;;;;5031483;28;20053;-76
2023/05/25 03:45:29;;;;;;;12.07;3.25;;;11.80;99.90;;;;;;5029159;28;20099;-76
2023/05/25 03:47:56;;;;;;;8.70;3.30;;;11.90;99.90;;;;;;5032090;28;20053;-76
2023/05/25 03:50:23;;;;;;;9.57;3.00;;;11.90;99.90;;;;;;5030249;28;20045;-77
2023/05/25 03:52:49;;;;;;;8.85;3.20;;;11.90;99.90;;;;;;5032453;28;20099;-77
2023/05/25 03:55:16;;;;;;;14.02;3.58;;;12.00;99.90;;;;;;5031509;28;20503;-77
2023/05/25 03:57:43;;;;;;;8.80;3.28;;;11.90;99.90;;;;;;5027866;28;20038;-77
2023/05/25 04:00:10;;;;;;;9.63;3.17;;;11.90;99.90;;;;;;5027381;28;20080;-77
2023/05/25 04:02:37;;;;;;;10.38;3.38;;;11.90;99.90;;;;;;5033062;28;20119;-76
2023/05/25 04:05:05;;;;;;;6.47;3.80;;;11.80;99.90;;;;;;5031235;28;20049;-77
2023/05/25 04:07:32;;;;;;;8.15;3.58;;;11.80;99.90;;;;;;5032734;28;20060;-77
2023/05/25 04:09:59;;;;;;;9.30;3.15;;;11.80;99.90;;;;;;5030953;28;20477;-76
2023/05/25 04:12:26;;;;;;;8.45;3.50;;;11.80;99.90;;;;;;5029419;28;20041;-77
2023/05/25 04:14:53;;;;;;;8.50;2.88;;;11.80;99.90;;;;;;5029965;28;20496;-77
2023/05/25 04:17:23;;;;;;;9.50;3.50;;;11.70;99.90;;;;;;5032701;28;20104;-77
2023/05/25 04:19:51;;;;;;;10.75;3.10;;;11.80;99.90;;;;;;5032199;28;20099;-77
2023/05/25 04:22:18;;;;;;;13.02;3.67;;;11.70;99.90;;;;;;5028845;28;20056;-77
2023/05/25 04:24:45;;;;;;;8.98;3.55;;;11.60;99.90;;;;;;5031136;28;20050;-76
2023/05/25 04:27:13;;;;;;;9.50;3.97;;;11.60;99.90;;;;;;5032562;28;20056;-76
2023/05/25 04:29:40;;;;;;;15.77;3.05;;;11.60;99.90;;;;;;5028655;28;20049;-77
2023/05/25 04:32:13;;;;;;;17.35;4.07;;;11.60;99.90;;;;;;5032410;28;20468;-76
2023/05/25 04:34:41;;;;;;;11.48;3.72;;;11.60;99.90;;;;;;5031167;28;20057;-77
2023/05/25 04:37:07;;;;;;;8.48;3.33;;;11.60;99.90;;;;;;5032424;28;20132;-77
2023/05/25 04:39:34;;;;;;;9.73;3.17;;;11.60;99.90;;;;;;5028827;28;20128;-77
2023/05/25 04:42:03;;;;;;;8.13;3.28;;;11.70;99.90;;;;;;5029734;28;20083;-77
2023/05/25 04:44:31;;;;;;;10.80;3.42;;;11.70;99.90;;;;;;5027309;28;20045;-77
2023/05/25 04:46:58;;;;;;;14.50;3.83;;;11.70;99.90;;;;;;5030874;28;20076;-75
2023/05/25 04:49:25;;;;;;;9.20;3.30;;;11.60;99.90;;;;;;5029375;28;20049;-77
2023/05/25 04:51:52;;;;;;;8.40;3.47;;;11.60;99.90;;;;;;5029137;28;20115;-77
2023/05/25 04:54:19;;;;;;;9.40;3.40;;;11.70;99.90;;;;;;5030404;28;20049;-77
2023/05/25 04:56:46;;;;;;;8.25;3.22;;;11.70;99.90;;;;;;5027310;28;20084;-76
2023/05/25 04:59:13;;;;;;;11.25;3.30;;;11.70;99.90;;;;;;5027648;28;20497;-76
2023/05/25 05:01:39;;;;;;;9.02;3.30;;;11.70;99.90;;;;;;5031658;28;20087;-76
2023/05/25 05:04:07;;;;;;;12.20;3.33;;;11.70;99.90;;;;;;5032119;28;20402;-77
2023/05/25 05:06:35;;;;;;;15.07;3.50;;;11.70;99.90;;;;;;5031381;28;20049;-77
2023/05/25 05:09:02;;;;;;;12.55;3.15;;;11.70;99.90;;;;;;5030764;28;20053;-76
2023/05/25 05:11:29;;;;;;;13.63;4.10;;;11.70;99.90;;;;;;5043558;28;20050;-77
2023/05/25 05:13:56;;;;;;;8.68;3.60;;;11.80;99.90;;;;;;5025869;28;20505;-76
2023/05/25 05:16:23;;;;;;;11.60;3.58;;;11.80;99.90;;;;;;5031237;28;20132;-77
2023/05/25 05:18:50;;;;;;;12.57;4.05;;;11.90;99.90;;;;;;5030457;28;20052;-77
2023/05/25 05:21:16;;;;;;;11.55;3.88;;;11.90;99.90;;;;;;5030255;28;20049;-77
2023/05/25 05:23:43;;;;;;;12.88;3.70;;;12.00;99.90;;;;;;5028687;28;20118;-77
2023/05/25 05:26:10;;;;;;;14.18;3.72;;;12.10;99.90;;;;;;5026968;28;20077;-77
2023/05/25 05:28:37;;;;;;;9.55;3.33;;;12.20;99.90;;;;;;5025911;28;20095;-76
2023/05/25 05:31:04;;;;;;;12.65;3.97;;;12.10;99.90;;;;;;5031229;28;20080;-77
2023/05/25 05:33:30;;;;;;;9.65;3.78;;;12.10;99.90;;;;;;5028828;28;20097;-77
2023/05/25 05:35:58;;;;;;;7.68;3.92;;;12.10;99.90;;;;;;5028207;28;20123;-77
2023/05/25 05:38:25;;;;;;;12.65;3.55;;;12.00;99.90;;;;;;5029182;28;20547;-76
2023/05/25 05:40:52;;;;;;;13.07;4.00;;;12.00;99.90;;;;;;5014132;28;20049;-77
2023/05/25 05:43:18;;;;;;;12.25;3.90;;;12.00;99.90;;;;;;5025959;28;20441;-77
2023/05/25 05:45:45;;;;;;;10.48;4.55;;;11.90;99.90;;;;;;5030139;28;20171;-76
2023/05/25 05:48:12;;;;;;;14.02;4.43;;;11.90;99.90;;;;;;5031434;28;20064;-77
2023/05/25 05:50:39;;;;;;;13.15;3.58;;;11.80;99.90;;;;;;5031103;28;20057;-77
2023/05/25 05:53:08;;;;;;;14.27;4.30;;;11.80;99.90;;;;;;5029481;28;20425;-77
2023/05/25 05:55:35;;;;;;;8.80;4.30;;;11.70;99.90;;;;;;5029842;28;20073;-76
2023/05/25 05:58:02;;;;;;;13.57;4.88;;;11.80;99.90;;;;;;5027024;28;20049;-77
2023/05/25 06:00:29;;;;;;;8.13;3.53;;;11.80;99.90;;;;;;5028865;28;20406;-77
2023/05/25 06:02:56;;;;;;;13.20;3.88;;;11.90;99.90;;;;;;5031136;28;20115;-77
2023/05/25 06:05:23;;;;;;;10.10;3.90;;;11.90;99.90;;;;;;5029819;28;20429;-77
2023/05/25 06:07:50;;;;;;;12.95;4.28;;;12.00;99.90;;;;;;5033474;28;20076;-77
2023/05/25 06:10:17;;;;;;;11.07;3.78;;;11.90;99.90;;;;;;5034729;28;20042;-77
2023/05/25 06:12:44;;;;;;;9.38;3.97;;;11.90;99.90;;;;;;5031316;28;20045;-77
2023/05/25 06:15:10;;;;;;;12.73;3.90;;;12.00;99.90;;;;;;5034176;28;20073;-77
2023/05/25 06:17:37;;;;;;;9.73;3.78;;;11.90;99.90;;;;;;5034632;28;20041;-77
2023/05/25 06:20:05;;;;;;;12.35;4.38;;;11.90;99.90;;;;;;5033683;28;20049;-76
2023/05/25 06:22:32;;;;;;;7.07;3.33;;;11.90;99.90;;;;;;5034110;28;20057;-77
2023/05/25 06:25:00;;;;;;;13.07;4.82;;;12.00;99.90;;;;;;5033411;28;20053;-76
2023/05/25 06:27:29;;;;;;;14.23;3.90;;;12.00;99.90;;;;;;5027001;28;20152;-76
2023/05/25 06:29:56;;;;;;;16.20;4.22;;;12.00;99.90;;;;;;5030439;28;20072;-77
2023/05/25 06:32:23;;;;;;;11.57;3.53;;;12.10;99.90;;;;;;5031454;28;20049;-77
2023/05/25 06:34:49;;;;;;;14.85;4.15;;;12.10;99.90;;;;;;5031781;28;20072;-76
2023/05/25 06:37:16;;;;;;;12.05;3.63;;;12.20;99.90;;;;;;5027441;28;20041;-76
2023/05/25 06:39:43;;;;;;;14.45;3.78;;;12.20;99.90;;;;;;5032691;28;20072;-77
2023/05/25 06:42:10;;;;;;;10.98;4.43;;;12.20;99.90;;;;;;5025685;28;20045;-76
2023/05/25 06:44:37;;;;;;;17.75;4.07;;;12.30;99.90;;;;;;5028883;28;20058;-77
2023/05/25 06:47:04;;;;;;;11.63;4.10;;;12.30;99.90;;;;;;5033039;28;20107;-76
2023/05/25 06:49:31;;;;;;;9.48;3.60;;;12.40;99.90;;;;;;5033162;28;20049;-76
2023/05/25 06:51:57;;;;;;;10.75;4.45;;;12.50;99.90;;;;;;5033221;28;20049;-76
2023/05/25 06:54:25;;;;;;;10.27;4.78;;;12.50;99.90;;;;;;5030787;28;20099;-77
2023/05/25 06:56:52;;;;;;;9.48;3.90;;;12.60;99.90;;;;;;5027314;28;20048;-76
2023/05/25 06:59:19;;;;;;;13.40;3.72;;;12.50;99.90;;;;;;5032228;28;20054;-76
2023/05/25 07:01:46;;;;;;;14.35;4.30;;;12.60;99.90;;;;;;5026339;28;20497;-76
2023/05/25 07:04:13;;;;;;;11.10;3.97;;;12.60;99.90;;;;;;5053676;23;20117;-76
2023/05/25 07:06:40;;;;;;;11.70;3.92;;;12.70;99.90;;;;;;5013980;28;20042;-76
2023/05/25 07:09:06;;;;;;;11.52;3.67;;;12.70;99.90;;;;;;5028590;28;20530;-77
2023/05/25 07:11:33;;;;;;;15.15;5.15;;;12.70;99.90;;;;;;5030706;28;20467;-76
2023/05/25 07:14:00;;;;;;;14.57;3.72;;;12.80;99.90;;;;;;5036602;28;20042;-76
2023/05/25 07:16:27;;;;;;;13.23;4.55;;;12.80;99.90;;;;;;5026506;28;20037;-76
2023/05/25 07:18:53;;;;;;;14.38;4.80;;;12.80;99.90;;;;;;5030921;28;20102;-76
2023/05/25 07:21:20;;;;;;;12.23;4.47;;;12.80;99.90;;;;;;5032029;28;20080;-76
2023/05/25 07:23:47;;;;;;;12.75;4.88;;;12.90;99.90;;;;;;5032852;28;20425;-76
2023/05/25 07:26:14;;;;;;;11.32;4.20;;;12.90;99.90;;;;;;5029272;28;20053;-76
2023/05/25 07:28:41;;;;;;;11.70;4.47;;;13.00;99.90;;;;;;5030257;28;20049;-77
2023/05/25 07:31:09;;;;;;;10.93;4.22;;;13.10;99.90;;;;;;5023723;28;20050;-77
2023/05/25 07:33:36;;;;;;;10.43;3.85;;;13.10;99.90;;;;;;5031117;28;20074;-76
2023/05/25 07:36:03;;;;;;;17.17;4.80;;;13.20;99.90;;;;;;5048215;28;20461;-79
2023/05/25 07:38:30;;;;;;;12.57;4.53;;;13.20;99.90;;;;;;5034069;28;20050;-77
2023/05/25 07:40:57;;;;;;;11.63;4.20;;;13.20;99.90;;;;;;5030595;28;20099;-77
2023/05/25 07:43:23;;;;;;;13.52;4.47;;;13.20;99.90;;;;;;5031684;28;20053;-77
2023/05/25 07:45:50;;;;;;;12.60;4.28;;;13.20;99.90;;;;;;5020931;28;20520;-77
2023/05/25 07:48:17;;;;;;;13.77;4.43;;;13.30;99.90;;;;;;5029894;28;20096;-77
2023/05/25 07:50:44;;;;;;;14.25;4.97;;;13.30;99.90;;;;;;5031070;28;20107;-77
2023/05/25 07:53:10;;;;;;;16.05;5.13;;;13.30;99.90;;;;;;5029541;28;20068;-77
2023/05/25 07:55:37;;;;;;;11.70;4.85;;;13.40;99.90;;;;;;5029288;28;20095;-77
2023/05/25 07:58:06;;;;;;;12.82;4.93;;;13.40;99.90;;;;;;5029914;28;20045;-77
2023/05/25 08:01:03;;;;;;;13.75;4.93;;;13.50;99.90;;;;;;5032330;28;20045;-77
2023/05/25 08:03:30;;;;;;;12.80;4.43;;;13.50;99.90;;;;;;5047465;28;20046;-77
2023/05/25 08:06:14;;;;;;;10.77;4.32;;;13.60;99.90;;;;;;5031610;28;20085;-76
2023/05/25 08:08:43;;;;;;;9.57;4.55;;;13.70;99.90;;;;;;5029315;28;20132;-76
2023/05/25 08:11:10;;;;;;;10.68;4.00;;;13.80;99.90;;;;;;5042817;28;20049;-77
2023/05/25 08:13:37;;;;;;;14.88;4.53;;;13.80;99.90;;;;;;5039547;28;20124;-77
2023/05/25 08:16:04;;;;;;;9.57;4.63;;;13.90;99.90;;;;;;5033368;28;20124;-77
2023/05/25 08:18:31;;;;;;;14.63;4.63;;;14.00;99.90;;;;;;5032737;28;20100;-76
2023/05/25 08:20:58;;;;;;;11.75;5.03;;;14.10;99.90;;;;;;5031734;28;20079;-77
2023/05/25 08:23:25;;;;;;;9.80;4.15;;;14.10;99.90;;;;;;5033171;28;20083;-77
2023/05/25 08:25:52;;;;;;;9.70;4.13;;;14.20;99.90;;;;;;5032715;28;20053;-77
2023/05/25 08:28:21;;;;;;;13.27;5.13;;;14.20;99.90;;;;;;5031015;28;20088;-77
2023/05/25 08:30:48;;;;;;;12.32;4.82;;;14.30;99.90;;;;;;5032585;28;20136;-77
2023/05/25 08:33:15;;;;;;;9.50;4.75;;;14.30;99.90;;;;;;5032893;28;20093;-77
2023/05/25 08:35:42;;;;;;;8.55;4.57;;;14.40;99.90;;;;;;5032713;28;20044;-77
2023/05/25 08:38:09;;;;;;;11.68;4.97;;;14.50;99.90;;;;;;5032625;28;20049;-77
2023/05/25 08:40:41;;;;;;;11.77;5.40;;;14.50;99.90;;;;;;5029718;28;20076;-77
2023/05/25 08:43:07;;;;;;;15.27;6.05;;;14.60;99.90;;;;;;5033443;28;20045;-76
2023/05/25 08:45:34;;;;;;;12.15;5.60;;;14.70;99.90;;;;;;5030705;28;20099;-77
2023/05/25 08:48:11;;;;;;;12.75;4.65;;;14.80;99.90;;;;;;5032398;28;20096;-77
2023/05/25 08:50:40;;;;;;;11.50;4.88;;;14.80;99.90;;;;;;5030842;28;20398;-77
2023/05/25 08:53:10;;;;;;;14.77;6.13;;;14.90;99.90;;;;;;5032355;28;20477;-77
2023/05/25 08:55:40;;;;;;;13.70;4.53;;;14.90;99.90;;;;;;5032570;28;20046;-77
2023/05/25 08:58:18;;;;;;;12.38;5.10;;;14.90;99.90;;;;;;5032548;28;20425;-77
2023/05/25 09:00:54;;;;;;;10.38;4.90;;;15.00;99.90;;;;;;5031863;28;20038;-77
2023/05/25 09:03:22;;;;;;;12.50;5.13;;;15.10;99.90;;;;;;5027558;28;20133;-77
2023/05/25 09:05:49;;;;;;;12.00;4.80;;;15.20;99.90;;;;;;5032260;28;20610;-77
2023/05/25 09:08:17;;;;;;;12.60;5.18;;;15.20;99.90;;;;;;5032276;28;20050;-77
2023/05/25 09:10:45;;;;;;;18.23;5.63;;;15.30;99.90;;;;;;5032476;28;20484;-77
2023/05/25 09:13:12;;;;;;;12.75;5.82;;;15.40;99.90;;;;;;5032082;28;20041;-77
2023/05/25 09:15:49;;;;;;;11.63;5.03;;;15.40;99.90;;;;;;5032101;28;20088;-77
2023/05/25 09:18:16;;;;;;;8.95;4.63;;;15.50;99.90;;;;;;5032283;28;20045;-76
2023/05/25 09:20:43;;;;;;;12.32;5.22;;;15.50;99.90;;;;;;5032548;28;20041;-77
2023/05/25 09:23:14;;;;;;;21.48;6.50;;;15.60;99.90;;;;;;5032409;28;20041;-77
2023/05/25 09:25:40;;;;;;;11.77;5.45;;;15.60;99.90;;;;;;5030467;28;20073;-77
2023/05/25 09:28:11;;;;;;;11.65;4.85;;;15.70;99.90;;;;;;5031725;28;20046;-77
2023/05/25 09:30:40;;;;;;;10.65;4.85;;;15.80;99.90;;;;;;5030556;28;20144;-77
2023/05/25 09:33:12;;;;;;;16.00;4.65;;;15.80;99.90;;;;;;5032047;28;20046;-77
2023/05/25 09:35:39;;;;;;;13.60;4.50;;;15.90;99.90;;;;;;5028645;28;20128;-77
2023/05/25 09:38:06;;;;;;;14.57;5.13;;;15.90;99.90;;;;;;5031553;28;20390;-77
2023/05/25 09:40:34;;;;;;;13.85;5.55;;;16.00;99.90;;;;;;5031576;28;20101;-77
2023/05/25 09:43:02;;;;;;;12.93;4.78;;;16.10;99.90;;;;;;5030671;28;20398;-78
2023/05/25 09:45:30;;;;;;;11.07;5.35;;;16.10;99.90;;;;;;5030213;28;20571;-77
2023/05/25 09:47:58;;;;;;;14.95;7.57;;;16.20;99.90;;;;;;5031622;28;20045;-75
2023/05/25 09:50:28;;;;;;;12.20;5.20;;;16.30;99.90;;;;;;5031424;28;20045;-76
2023/05/25 09:52:56;;;;;;;;;;;16.30;99.90;;;;;;5028846;28;20501;-77
2023/05/25 09:55:23;;;;;;;13.18;6.47;;;16.40;99.90;;;;;;5031169;28;19967;-75
2023/05/25 09:57:54;;;;;;;14.38;5.35;;;16.40;99.90;;;;;;5025854;28;20054;-77
2023/05/25 10:00:24;;;;;;;11.48;5.22;;;16.50;99.90;;;;;;5038584;28;20077;-77
2023/05/25 10:02:52;;;;;;;11.90;5.80;;;16.60;99.90;;;;;;5031616;28;20076;-77
2023/05/25 10:05:19;;;;;;;14.50;6.15;;;16.60;99.90;;;;;;5031792;28;20054;-78
2023/05/25 10:07:46;;;;;;;11.20;6.15;;;16.70;99.90;;;;;;5031407;28;20083;-77
2023/05/25 10:10:14;;;;;;;9.57;5.47;;;16.80;99.90;;;;;;5031609;28;20068;-77
2023/05/25 10:12:43;;;;;;;13.63;5.63;;;16.90;99.90;;;;;;5031286;28;20045;-78
2023/05/25 10:15:12;;;;;;;10.93;5.97;;;16.90;99.90;;;;;;5029899;28;20046;-78
2023/05/25 10:17:44;;;;;;;11.35;5.93;;;17.00;99.90;;;;;;5029954;28;20037;-75
2023/05/25 10:20:13;;;;;;;14.38;5.80;;;17.10;99.90;;;;;;5028098;28;20144;-76
2023/05/25 10:22:50;;;;;;;14.57;5.43;;;17.10;99.90;;;;;;5030932;28;20041;-76
2023/05/25 10:25:31;;;;;;;10.98;5.18;;;17.20;99.90;;;;;;5028188;28;20128;-76
2023/05/25 10:28:21;;;;;;;9.40;5.32;;;17.30;99.90;;;;;;5028688;28;20079;-76
2023/05/25 10:30:49;;;;;;;9.87;4.83;;;17.30;99.90;;;;;;5030324;28;20103;-76
2023/05/25 10:33:17;;;;;;;10.35;4.80;;;17.40;99.90;;;;;;5029056;28;20641;-75
2023/05/25 10:35:45;;;;;;;9.30;5.15;;;17.50;99.90;;;;;;5029757;28;20049;-75
2023/05/25 10:38:33;;;;;;;9.48;5.07;;;17.60;99.90;;;;;;5030371;28;20497;-75
2023/05/25 10:41:04;;;;;;;8.75;4.82;;;17.70;99.90;;;;;;5030749;28;20112;-75
2023/05/25 10:43:31;;;;;;;9.02;4.93;;;17.80;99.90;;;;;;5030277;28;20045;-75
2023/05/25 10:45:58;;;;;;;10.55;5.40;;;17.90;99.90;;;;;;5030445;28;20124;-76
2023/05/25 10:48:35;;;;;;;12.77;5.13;;;18.00;99.90;;;;;;5030327;28;20153;-75
2023/05/25 10:51:02;;;;;;;10.55;4.50;;;18.00;99.90;;;;;;5031563;28;20041;-76
2023/05/25 10:53:28;;;;;;;9.02;4.50;;;18.00;99.90;;;;;;5034413;28;20152;-75
2023/05/25 10:56:03;;;;;;;9.43;4.38;;;18.10;99.90;;;;;;5034266;28;20120;-75
2023/05/25 10:58:30;;;;;;;6.57;4.03;;;18.20;99.90;;;;;;5032260;28;20057;-76
2023/05/25 11:01:02;;;;;;;9.50;4.32;;;18.30;99.90;;;;;;5033229;28;20395;-75
2023/05/25 11:03:57;;;;;;;8.85;4.13;;;18.40;99.90;;;;;;5033574;28;20501;-75
2023/05/25 11:06:36;;;;;;;6.70;4.05;;;18.60;99.90;;;;;;5032994;28;20037;-75
2023/05/25 11:09:05;;;;;;;7.20;3.80;;;18.80;99.90;;;;;;5033824;28;20129;-75
2023/05/25 11:11:46;;;;;;;5.40;4.00;;;18.90;99.90;;;;;;5032782;28;20346;-75
2023/05/25 11:14:26;;;;;;;8.57;4.15;;;19.00;99.90;;;;;;5033356;28;20505;-76
2023/05/25 11:17:13;;;;;;;6.38;3.88;;;19.00;99.90;;;;;;5029699;28;20041;-76
2023/05/25 11:19:42;;;;;;;9.18;4.10;;;19.10;99.90;;;;;;5033601;28;20052;-76
2023/05/25 11:22:21;;;;;;;7.70;4.22;;;19.20;99.90;;;;;;5033610;28;20535;-77
2023/05/25 11:24:50;;;;;;;6.57;3.53;;;19.30;99.90;;;;;;5033495;28;20060;-76
2023/05/25 11:27:23;;;;;;;10.73;4.25;;;19.30;99.90;;;;;;5033110;28;20448;-76
2023/05/25 11:29:51;;;;;;;9.77;4.50;;;19.50;99.90;;;;;;5033635;28;20057;-76
2023/05/25 11:32:18;;;;;;;6.28;3.60;;;19.50;99.90;;;;;;5033410;28;20041;-76
2023/05/25 11:34:52;;;;;;;6.68;3.72;;;19.60;99.90;;;;;;5032389;28;20048;-76
2023/05/25 11:37:20;;;;;;;8.18;3.78;;;19.60;99.90;;;;;;5033096;28;20107;-76
2023/05/25 11:39:48;;;;;;;6.63;3.42;;;19.60;99.90;;;;;;5033249;28;20049;-76
2023/05/25 11:42:18;;;;;;;6.50;3.60;;;19.70;99.90;;;;;;5041784;28;20131;-76
2023/05/25 11:44:45;;;;;;;6.95;3.75;;;19.80;99.90;;;;;;5032028;28;20154;-76
2023/05/25 11:47:13;;;;;;;6.88;3.92;;;19.90;99.90;;;;;;5032723;28;20045;-76
2023/05/25 11:49:41;;;;;;;7.22;3.97;;;19.80;99.90;;;;;;5032993;28;20417;-76
2023/05/25 11:52:09;;;;;;;6.55;3.58;;;19.80;99.90;;;;;;5033295;28;20045;-76
2023/05/25 11:54:39;;;;;;;5.53;3.63;;;19.90;99.90;;;;;;5033312;28;20037;-76
2023/05/25 11:57:21;;;;;;;6.97;3.60;;;20.00;99.90;;;;;;5028601;28;20049;-76
2023/05/25 11:59:49;;;;;;;5.60;3.40;;;20.20;99.90;;;;;;5031000;28;20132;-76
2023/05/25 12:02:16;;;;;;;9.93;3.55;;;20.20;99.90;;;;;;5032142;28;20421;-76
2023/05/25 12:04:55;;;;;;;7.28;3.60;;;20.20;99.90;;;;;;5032345;28;20050;-76
2023/05/25 12:07:23;;;;;;;6.03;4.22;;;20.30;99.90;;;;;;5032571;28;20053;-76
2023/05/25 12:09:50;;;;;;;8.43;3.80;;;20.40;99.90;;;;;;5032557;28;20099;-76
2023/05/25 12:12:18;;;;;;;5.80;3.40;;;20.40;99.90;;;;;;5032856;28;20071;-76
2023/05/25 12:14:49;;;;;;;7.97;3.75;;;20.30;99.90;;;;;;5031483;28;20124;-76
2023/05/25 12:17:17;;;;;;;7.70;4.35;;;20.30;99.90;;;;;;5032135;28;20073;-76
2023/05/25 12:19:44;;;;;;;6.75;4.10;;;20.20;99.90;;;;;;5031170;28;20045;-76
2023/05/25 12:22:12;;;;;;;12.77;4.70;;;20.10;99.90;;;;;;5032642;28;20076;-76
2023/05/25 12:24:39;;;;;;;8.25;3.85;;;20.00;99.90;;;;;;5032573;28;20053;-76
2023/05/25 12:27:16;;;;;;;6.00;4.03;;;20.10;99.90;;;;;;5031956;28;20042;-76
2023/05/25 12:29:47;;;;;;;9.50;4.03;;;20.10;99.90;;;;;;5046253;28;20494;-76
2023/05/25 12:32:14;;;;;;;9.40;4.15;;;20.20;99.90;;;;;;5031150;28;20049;-76
2023/05/25 12:34:42;;;;;;;11.13;4.80;;;20.30;99.90;;;;;;5031943;28;20788;-76
2023/05/25 12:37:20;;;;;;;9.80;5.20;;;20.30;99.90;;;;;;5045001;28;20605;-76
2023/05/25 12:39:47;;;;;;;6.32;3.83;;;20.30;99.90;;;;;;5031873;28;20042;-76
2023/05/25 12:42:15;;;;;;;6.80;3.63;;;20.30;99.90;;;;;;5029166;28;20551;-75
2023/05/25 12:44:45;;;;;;;8.02;4.82;;;20.40;99.90;;;;;;5029165;28;20760;-76
2023/05/25 12:47:18;;;;;;;9.90;4.65;;;20.50;99.90;;;;;;5030474;28;20048;-76
2023/05/25 12:50:11;;;;;;;7.57;4.97;;;20.50;99.90;;;;;;5031072;28;20046;-76